Time;durP1;ratioP1;P1;durP2;ratioP2;P2;SDS_P1;SDS_P2;PMS_P1;PMS_P2;Temp;Humidity;BMP_temperature;BMP_pressure;BME280_temperature;BME280_humidity;BME280_pressure;Samples;Min_cycle;Max_cycle;Signal;HPM_P1;HPM_P2
2022/07/14 00:03:20;;;;;;;2.17;0.70;;;;;;;;;;12626556;28;20407;-77
2022/07/14 00:09:21;;;;;;;0.68;0.65;;;;;;;;;;12645545;28;20038;-77
2022/07/14 00:15:23;;;;;;;0.70;0.70;;;;;;;;;;12626855;28;20500;-77
2022/07/14 00:21:25;;;;;;;0.35;0.35;;;;;;;;;;12626233;28;20043;-76
2022/07/14 00:27:27;;;;;;;0.75;0.60;;;;;;;;;;12644081;28;20025;-80
2022/07/14 00:33:29;;;;;;;0.57;0.55;;;;;;;;;;12614198;28;20031;-76
2022/07/14 00:39:54;;;;;;;1.90;0.50;;;;;;;;;;12653030;28;20040;-81
2022/07/14 00:45:53;;;;;;;0.65;0.65;;;;;;;;;;12652758;28;20475;-76
2022/07/14 00:51:54;;;;;;;0.95;0.70;;;;;;;;;;12634789;28;20024;-76
2022/07/14 00:57:56;;;;;;;;;;;;;;;;;;12634663;28;20036;-81
2022/07/14 01:03:58;;;;;;;0.47;0.40;;;;;;;;;;12651921;28;20367;-76
2022/07/14 01:10:00;;;;;;;2.47;0.70;;;;;;;;;;12634388;28;20058;-76
2022/07/14 01:16:02;;;;;;;;;;;;;;;;;;12634378;28;20507;-81
2022/07/14 01:22:04;;;;;;;0.60;0.60;;;;;;;;;;12651109;28;19916;-78
2022/07/14 01:28:07;;;;;;;0.65;0.65;;;;;;;;;;12616369;28;20043;-80
2022/07/14 01:34:09;;;;;;;0.85;0.85;;;;;;;;;;12651017;28;20498;-76
2022/07/14 01:40:12;;;;;;;1.08;0.95;;;;;;;;;;12632530;28;20048;-81
2022/07/14 01:46:13;;;;;;;0.80;0.68;;;;;;;;;;12615525;28;20040;-76
2022/07/14 01:52:16;;;;;;;1.92;0.80;;;;;;;;;;12631911;28;20051;-77
2022/07/14 01:58:18;;;;;;;0.70;0.70;;;;;;;;;;12631871;28;20052;-81
2022/07/14 02:04:20;;;;;;;0.88;0.80;;;;;;;;;;12632053;28;20031;-81
2022/07/14 02:16:43;;;;;;;1.63;0.87;;;;;;;;;;12630685;28;20035;-77
2022/07/14 02:22:45;;;;;;;1.60;1.02;;;;;;;;;;12630764;28;20515;-81
2022/07/14 02:28:47;;;;;;;;;;;;;;;;;;12614148;28;20032;-82
2022/07/14 02:34:50;;;;;;;1.37;0.90;;;;;;;;;;12613202;28;19908;-82
2022/07/14 02:40:51;;;;;;;0.80;0.80;;;;;;;;;;12628773;28;20048;-77
2022/07/14 02:46:53;;;;;;;0.60;0.57;;;;;;;;;;12645604;28;20028;-82
2022/07/14 02:52:55;;;;;;;;;;;;;;;;;;12627550;28;20035;-82
2022/07/14 02:58:57;;;;;;;1.17;0.80;;;;;;;;;;12609628;28;19916;-77
2022/07/14 03:05:02;;;;;;;1.50;1.02;;;;;;;;;;12609629;28;20024;-82
2022/07/14 03:11:05;;;;;;;1.55;1.00;;;;;;;;;;12610053;28;20043;-82
2022/07/14 03:17:09;;;;;;;1.15;1.00;;;;;;;;;;12625317;28;20502;-76
2022/07/14 03:23:11;;;;;;;;;;;;;;;;;;12625291;28;20036;-76
2022/07/14 03:29:13;;;;;;;0.95;0.77;;;;;;;;;;12625152;28;19930;-81
2022/07/14 03:35:15;;;;;;;1.85;1.10;;;;;;;;;;12626353;28;20395;-80
2022/07/14 03:41:16;;;;;;;;;;;;;;;;;;12625650;28;20056;-76
2022/07/14 03:47:18;;;;;;;1.30;0.87;;;;;;;;;;12624592;28;19916;-81
2022/07/14 03:53:21;;;;;;;4.57;1.15;;;;;;;;;;12627045;28;20111;-77
2022/07/14 03:59:23;;;;;;;1.48;0.70;;;;;;;;;;12626835;28;20055;-77
2022/07/14 04:05:26;;;;;;;1.20;1.10;;;;;;;;;;12627529;28;20480;-82
2022/07/14 04:11:35;;;;;;;1.10;1.10;;;;;;;;;;12637395;28;20392;-82
2022/07/14 04:17:38;;;;;;;0.80;0.80;;;;;;;;;;12636004;28;20523;-81
2022/07/14 04:23:40;;;;;;;1.58;1.10;;;;;;;;;;12653769;28;20040;-81
2022/07/14 04:29:42;;;;;;;1.20;1.10;;;;;;;;;;12619385;28;20036;-77
2022/07/14 04:35:45;;;;;;;1.27;1.15;;;;;;;;;;12635372;28;20036;-81
2022/07/14 04:41:47;;;;;;;1.30;1.17;;;;;;;;;;12618614;28;20052;-76
2022/07/14 04:47:49;;;;;;;1.27;1.17;;;;;;;;;;12635085;28;20024;-81
2022/07/14 04:53:51;;;;;;;2.33;1.48;;;;;;;;;;12635092;28;20388;-75
2022/07/14 05:00:25;;;;;;;0.95;0.80;;;;;;;;;;12639524;28;20044;-82
2022/07/14 05:06:57;;;;;;;2.27;1.20;;;;;;;;;;12567025;28;20052;-81
2022/07/14 05:12:59;;;;;;;1.85;1.00;;;;;;;;;;12634779;28;20044;-76
2022/07/14 05:19:00;;;;;;;;;;;;;;;;;;12616016;28;20044;-77
2022/07/14 05:25:05;;;;;;;1.20;1.07;;;;;;;;;;12633339;28;19908;-81
2022/07/14 05:31:07;;;;;;;1.92;1.30;;;;;;;;;;12632648;28;20042;-77
2022/07/14 05:37:21;;;;;;;3.15;1.50;;;;;;;;;;12617779;28;20035;-81
2022/07/14 05:43:23;;;;;;;4.90;1.65;;;;;;;;;;12632506;28;20056;-77
2022/07/14 05:49:25;;;;;;;1.75;1.00;;;;;;;;;;12632302;28;20365;-77
2022/07/14 05:55:27;;;;;;;2.45;1.45;;;;;;;;;;12631140;28;20059;-81
2022/07/14 06:01:30;;;;;;;2.03;1.20;;;;;;;;;;12630925;28;20047;-82
2022/07/14 06:07:32;;;;;;;2.42;1.00;;;;;;;;;;12615060;28;20039;-80
2022/07/14 06:13:34;;;;;;;;;;;;;;;;;;12650348;28;20036;-81
2022/07/14 06:19:35;;;;;;;;;;;;;;;;;;12632934;28;19964;-81
2022/07/14 06:25:38;;;;;;;2.20;1.17;;;;;;;;;;12630639;28;19915;-76
2022/07/14 06:31:40;;;;;;;1.77;1.38;;;;;;;;;;12613390;28;20039;-80
2022/07/14 06:37:45;;;;;;;2.33;1.58;;;;;;;;;;12613540;28;20027;-77
2022/07/14 06:43:48;;;;;;;1.73;1.38;;;;;;;;;;12647715;28;20063;-77
2022/07/14 06:49:50;;;;;;;1.67;1.20;;;;;;;;;;12611859;28;20039;-76
2022/07/14 06:55:52;;;;;;;1.77;1.27;;;;;;;;;;12628579;28;20036;-76
2022/07/14 07:01:54;;;;;;;1.80;1.10;;;;;;;;;;12627929;28;20044;-76
2022/07/14 07:08:00;;;;;;;1.48;0.88;;;;;;;;;;12627592;28;20036;-81
2022/07/14 07:14:02;;;;;;;1.00;1.00;;;;;;;;;;12647263;28;20039;-77
2022/07/14 07:20:04;;;;;;;1.25;1.13;;;;;;;;;;12648191;28;20032;-78
2022/07/14 07:26:06;;;;;;;0.98;0.90;;;;;;;;;;12628704;28;20035;-77
2022/07/14 07:32:08;;;;;;;1.13;0.82;;;;;;;;;;12646793;28;20222;-81
2022/07/14 07:38:10;;;;;;;0.80;0.57;;;;;;;;;;12627904;28;20035;-81
2022/07/14 07:44:12;;;;;;;0.88;0.70;;;;;;;;;;12611399;28;20059;-81
2022/07/14 07:50:13;;;;;;;1.05;0.95;;;;;;;;;;12644862;28;20039;-78
2022/07/14 07:56:15;;;;;;;0.77;0.77;;;;;;;;;;12644630;28;20395;-81
2022/07/14 08:02:17;;;;;;;0.60;0.60;;;;;;;;;;12644521;28;20087;-80
2022/07/14 08:08:19;;;;;;;1.38;0.75;;;;;;;;;;12627006;28;20036;-77
2022/07/14 08:20:41;;;;;;;1.58;0.60;;;;;;;;;;12644044;28;20408;-77
2022/07/14 08:26:43;;;;;;;0.88;0.70;;;;;;;;;;12644661;28;20044;-77
2022/07/14 08:32:47;;;;;;;1.13;0.80;;;;;;;;;;12626502;28;20031;-77
2022/07/14 08:38:49;;;;;;;0.75;0.75;;;;;;;;;;12645390;28;20044;-80
2022/07/14 08:44:51;;;;;;;0.90;0.70;;;;;;;;;;12646170;28;20024;-77
2022/07/14 08:50:53;;;;;;;1.63;0.68;;;;;;;;;;12609679;28;20063;-81
2022/07/14 08:56:55;;;;;;;0.50;0.50;;;;;;;;;;12632696;28;20035;-77
2022/07/14 09:02:57;;;;;;;0.77;0.70;;;;;;;;;;12652238;28;20040;-81
2022/07/14 09:08:59;;;;;;;0.45;0.45;;;;;;;;;;12634668;28;20032;-77
2022/07/14 09:21:22;;;;;;;0.82;0.70;;;;;;;;;;12651583;28;20094;-82
2022/07/14 09:27:24;;;;;;;1.67;0.63;;;;;;;;;;12632379;28;20377;-81
2022/07/14 09:33:26;;;;;;;1.67;0.70;;;;;;;;;;12650145;28;20028;-77
2022/07/14 09:39:28;;;;;;;1.65;0.60;;;;;;;;;;12650643;28;20059;-76
2022/07/14 09:45:31;;;;;;;2.00;0.70;;;;;;;;;;12632052;28;20037;-77
2022/07/14 09:51:33;;;;;;;1.40;0.70;;;;;;;;;;12649949;28;20032;-77
2022/07/14 09:57:39;;;;;;;1.33;0.75;;;;;;;;;;12649657;28;20039;-80
2022/07/14 10:03:41;;;;;;;2.63;0.63;;;;;;;;;;12651004;28;20036;-76
2022/07/14 10:09:46;;;;;;;2.55;0.60;;;;;;;;;;12650401;28;20038;-77
2022/07/14 10:15:49;;;;;;;1.02;0.55;;;;;;;;;;12649836;28;20040;-76
2022/07/14 10:21:51;;;;;;;1.00;0.50;;;;;;;;;;12631472;28;20044;-76
2022/07/14 10:27:53;;;;;;;3.90;0.80;;;;;;;;;;12648194;28;20024;-77
2022/07/14 10:34:09;;;;;;;1.65;0.70;;;;;;;;;;12649090;28;20047;-76
2022/07/14 10:40:31;;;;;;;0.90;0.52;;;;;;;;;;12612104;28;20055;-77
2022/07/14 10:46:33;;;;;;;3.15;0.85;;;;;;;;;;12646875;28;20480;-76
2022/07/14 10:52:39;;;;;;;1.30;0.40;;;;;;;;;;12647253;28;20035;-76
2022/07/14 10:58:41;;;;;;;0.60;0.60;;;;;;;;;;12645981;28;20044;-81
2022/07/14 11:05:04;;;;;;;0.63;0.50;;;;;;;;;;12627248;28;20036;-77
2022/07/14 11:11:09;;;;;;;0.85;0.52;;;;;;;;;;12646597;28;20028;-77
2022/07/14 11:17:35;;;;;;;0.60;0.50;;;;;;;;;;12644010;28;20429;-76
2022/07/14 11:23:46;;;;;;;0.60;0.57;;;;;;;;;;12626550;28;20049;-76
2022/07/14 11:29:48;;;;;;;0.43;0.43;;;;;;;;;;12625080;28;20036;-76
2022/07/14 11:42:14;;;;;;;0.57;0.40;;;;;;;;;;12647621;28;20047;-76
2022/07/14 11:48:17;;;;;;;0.60;0.40;;;;;;;;;;12645662;28;20032;-81
2022/07/14 11:54:19;;;;;;;0.40;0.40;;;;;;;;;;12609847;28;20040;-78
2022/07/14 12:00:21;;;;;;;1.40;0.40;;;;;;;;;;12644053;28;20036;-77
2022/07/14 12:06:24;;;;;;;0.43;0.35;;;;;;;;;;12610237;28;20040;-77
2022/07/14 12:12:26;;;;;;;0.60;0.40;;;;;;;;;;12628128;28;20036;-80
2022/07/14 12:18:31;;;;;;;0.40;0.30;;;;;;;;;;12626500;28;20036;-81
2022/07/14 12:24:34;;;;;;;0.40;0.28;;;;;;;;;;12625750;28;20048;-81
2022/07/14 12:30:48;;;;;;;0.93;0.30;;;;;;;;;;12632943;28;20035;-80
2022/07/14 12:36:50;;;;;;;0.50;0.20;;;;;;;;;;12619826;28;20463;-81
2022/07/14 12:42:52;;;;;;;0.63;0.35;;;;;;;;;;12634662;28;20064;-81
2022/07/14 12:48:57;;;;;;;0.30;0.30;;;;;;;;;;12653309;28;20028;-77
2022/07/14 12:55:00;;;;;;;1.45;0.30;;;;;;;;;;12634535;28;20032;-81
2022/07/14 13:01:12;;;;;;;1.15;0.40;;;;;;;;;;12654119;28;20498;-77
2022/07/14 13:07:16;;;;;;;0.30;0.30;;;;;;;;;;12653053;28;20028;-76
2022/07/14 13:13:28;;;;;;;0.63;0.30;;;;;;;;;;12651751;28;20032;-80
2022/07/14 13:19:30;;;;;;;2.00;0.30;;;;;;;;;;12633680;28;20044;-81
2022/07/14 13:25:32;;;;;;;1.33;0.45;;;;;;;;;;12651300;28;20482;-76
2022/07/14 13:31:34;;;;;;;0.30;0.30;;;;;;;;;;12650648;28;20027;-78
2022/07/14 13:37:35;;;;;;;0.20;0.20;;;;;;;;;;12650686;28;20036;-77
2022/07/14 13:43:38;;;;;;;2.03;0.43;;;;;;;;;;12631288;28;20396;-80
2022/07/14 13:56:00;;;;;;;0.50;0.50;;;;;;;;;;12631823;28;20384;-77
2022/07/14 14:02:02;;;;;;;0.88;0.50;;;;;;;;;;12632052;28;20055;-77
2022/07/14 14:08:06;;;;;;;0.20;0.20;;;;;;;;;;12632197;28;20353;-81
2022/07/14 14:14:08;;;;;;;2.10;0.40;;;;;;;;;;12649165;28;20032;-81
2022/07/14 14:20:10;;;;;;;0.90;0.50;;;;;;;;;;12648798;28;20040;-77
2022/07/14 14:26:12;;;;;;;0.40;0.40;;;;;;;;;;12648649;28;20039;-77
2022/07/14 14:32:14;;;;;;;1.33;0.30;;;;;;;;;;12648442;28;20024;-77
2022/07/14 14:38:16;;;;;;;0.20;0.20;;;;;;;;;;12648337;28;20032;-77
2022/07/14 14:44:17;;;;;;;1.95;0.40;;;;;;;;;;12647070;28;20060;-81
2022/07/14 14:50:19;;;;;;;0.35;0.30;;;;;;;;;;12612675;28;20392;-77
2022/07/14 14:56:21;;;;;;;1.00;0.40;;;;;;;;;;12627844;28;20032;-81
2022/07/14 15:02:27;;;;;;;1.13;0.40;;;;;;;;;;12626435;28;20051;-77
2022/07/14 15:08:28;;;;;;;0.55;0.30;;;;;;;;;;12626523;28;20046;-76
2022/07/14 15:14:30;;;;;;;0.30;0.22;;;;;;;;;;12609848;28;20040;-76
2022/07/14 15:20:32;;;;;;;0.35;0.30;;;;;;;;;;12611159;28;20082;-76
2022/07/14 15:26:34;;;;;;;1.52;0.30;;;;;;;;;;12645818;28;20062;-76
2022/07/14 15:32:36;;;;;;;0.82;0.40;;;;;;;;;;12627675;28;20369;-81
2022/07/14 15:41:14;;;;;;;0.20;0.20;;;;;;;;;;12627612;28;20111;-81
2022/07/14 15:45:00;;;;;;;0.40;0.30;;;;;;;;;;12645008;28;20044;-76
2022/07/14 15:51:06;;;;;;;0.95;0.38;;;;;;;;;;12646081;28;20060;-77
2022/07/14 15:57:08;;;;;;;1.48;0.40;;;;;;;;;;12645238;28;20039;-79
2022/07/14 16:03:10;;;;;;;1.27;0.35;;;;;;;;;;12630002;28;20055;-77
2022/07/14 16:09:12;;;;;;;0.50;0.45;;;;;;;;;;12656837;28;20032;-77
2022/07/14 16:15:13;;;;;;;0.30;0.28;;;;;;;;;;12636727;28;20043;-79
2022/07/14 16:21:15;;;;;;;0.98;0.30;;;;;;;;;;12654501;28;20039;-76
2022/07/14 16:27:18;;;;;;;0.15;0.15;;;;;;;;;;12654553;28;20036;-79
2022/07/14 16:33:19;;;;;;;0.25;0.25;;;;;;;;;;12653279;28;20383;-80
2022/07/14 16:39:21;;;;;;;0.50;0.25;;;;;;;;;;12635507;28;20047;-79
2022/07/14 16:45:25;;;;;;;0.52;0.30;;;;;;;;;;12652666;28;20036;-80
2022/07/14 16:51:27;;;;;;;0.20;0.20;;;;;;;;;;12634040;28;20039;-80
2022/07/14 16:57:28;;;;;;;0.15;0.13;;;;;;;;;;12652494;28;20403;-77
2022/07/14 17:03:32;;;;;;;0.47;0.30;;;;;;;;;;12617590;28;20059;-81
2022/07/14 17:09:33;;;;;;;0.80;0.30;;;;;;;;;;12653203;28;20043;-81
2022/07/14 17:15:35;;;;;;;0.22;0.20;;;;;;;;;;12631665;28;20040;-81
2022/07/14 17:21:37;;;;;;;0.10;0.10;;;;;;;;;;12631824;28;20416;-81
2022/07/14 17:27:38;;;;;;;0.30;0.10;;;;;;;;;;12615401;28;20043;-78
2022/07/14 17:33:40;;;;;;;0.80;0.20;;;;;;;;;;12651219;28;20467;-78
2022/07/14 17:39:42;;;;;;;0.85;0.20;;;;;;;;;;12630728;28;20408;-77
2022/07/14 17:45:44;;;;;;;0.20;0.20;;;;;;;;;;12628721;28;20040;-80
2022/07/14 17:58:07;;;;;;;1.15;0.20;;;;;;;;;;12646297;28;20028;-79
2022/07/14 18:04:10;;;;;;;0.28;0.28;;;;;;;;;;12628340;28;20054;-77
2022/07/14 18:10:12;;;;;;;0.40;0.20;;;;;;;;;;12611072;28;20043;-77
2022/07/14 18:16:14;;;;;;;0.85;0.17;;;;;;;;;;12610826;28;20047;-80
2022/07/14 18:22:16;;;;;;;0.30;0.20;;;;;;;;;;12626724;28;20051;-80
2022/07/14 18:28:17;;;;;;;0.10;0.00;;;;;;;;;;12626330;28;20032;-76
2022/07/14 18:34:19;;;;;;;0.20;0.13;;;;;;;;;;12627248;28;20032;-80
2022/07/14 18:40:21;;;;;;;0.85;0.40;;;;;;;;;;12647487;28;20115;-81
2022/07/14 18:46:23;;;;;;;0.20;0.20;;;;;;;;;;12648222;28;20040;-77
2022/07/14 18:52:25;;;;;;;0.40;0.30;;;;;;;;;;12628953;28;20028;-80
2022/07/14 18:58:27;;;;;;;0.20;0.20;;;;;;;;;;12629212;28;20036;-76
2022/07/14 19:04:28;;;;;;;0.30;0.25;;;;;;;;;;12612229;28;20059;-77
2022/07/14 19:10:30;;;;;;;0.30;0.30;;;;;;;;;;12629009;28;20039;-76
2022/07/14 19:16:32;;;;;;;0.20;0.20;;;;;;;;;;12645948;28;20027;-75
2022/07/14 19:22:36;;;;;;;1.40;0.30;;;;;;;;;;12628066;28;20044;-80
2022/07/14 19:28:38;;;;;;;0.45;0.20;;;;;;;;;;12627979;28;20028;-76
2022/07/14 19:34:41;;;;;;;0.65;0.20;;;;;;;;;;12626252;28;20044;-80
2022/07/14 19:40:44;;;;;;;0.60;0.38;;;;;;;;;;12623459;28;20040;-75
2022/07/14 19:46:46;;;;;;;0.80;0.40;;;;;;;;;;12642547;28;20051;-77
2022/07/14 19:52:48;;;;;;;0.38;0.38;;;;;;;;;;12642245;28;20043;-77
2022/07/14 19:58:49;;;;;;;0.68;0.30;;;;;;;;;;12643042;28;20043;-76
2022/07/14 20:04:52;;;;;;;0.40;0.20;;;;;;;;;;12643919;28;20105;-76
2022/07/14 20:10:53;;;;;;;0.40;0.20;;;;;;;;;;12627089;28;20472;-81
2022/07/14 20:16:55;;;;;;;0.77;0.25;;;;;;;;;;12609582;28;20040;-80
2022/07/14 20:22:57;;;;;;;0.88;0.30;;;;;;;;;;12644346;28;20115;-79
2022/07/14 20:35:20;;;;;;;0.20;0.20;;;;;;;;;;12642260;28;20036;-75
2022/07/14 20:41:21;;;;;;;0.30;0.30;;;;;;;;;;12643277;28;20047;-76
2022/07/14 20:47:24;;;;;;;0.22;0.22;;;;;;;;;;12643440;28;20040;-76
2022/07/14 20:53:25;;;;;;;0.35;0.35;;;;;;;;;;12652891;28;20043;-80
2022/07/14 20:59:27;;;;;;;0.57;0.40;;;;;;;;;;12652693;28;20028;-80
2022/07/14 21:05:29;;;;;;;0.40;0.40;;;;;;;;;;12652288;28;20483;-81
2022/07/14 21:11:31;;;;;;;0.82;0.60;;;;;;;;;;12617842;28;20459;-78
2022/07/14 21:17:34;;;;;;;0.50;0.50;;;;;;;;;;12617157;28;20040;-75
2022/07/14 21:23:35;;;;;;;1.63;0.50;;;;;;;;;;12633360;28;20043;-80
2022/07/14 21:29:37;;;;;;;0.73;0.40;;;;;;;;;;12651277;28;20032;-76
2022/07/14 21:35:39;;;;;;;0.40;0.40;;;;;;;;;;12632806;28;20047;-76
2022/07/14 21:41:40;;;;;;;0.93;0.52;;;;;;;;;;12650721;28;20060;-80
2022/07/14 21:47:42;;;;;;;0.95;0.50;;;;;;;;;;12650495;28;20032;-76
2022/07/14 21:53:44;;;;;;;2.80;0.63;;;;;;;;;;12632360;28;20032;-80
2022/07/14 21:59:47;;;;;;;0.82;0.40;;;;;;;;;;12630859;28;20032;-76
2022/07/14 22:05:49;;;;;;;1.75;0.60;;;;;;;;;;12649480;28;20043;-80
2022/07/14 22:11:51;;;;;;;0.75;0.50;;;;;;;;;;12649331;28;20036;-75
2022/07/14 22:17:53;;;;;;;0.60;0.60;;;;;;;;;;12649316;28;20035;-76
2022/07/14 22:23:55;;;;;;;0.70;0.70;;;;;;;;;;12630218;28;20519;-80
2022/07/14 22:29:56;;;;;;;0.75;0.50;;;;;;;;;;12630588;28;20036;-76
2022/07/14 22:35:58;;;;;;;1.42;0.47;;;;;;;;;;12648340;28;20023;-80
2022/07/14 22:42:00;;;;;;;0.65;0.50;;;;;;;;;;12629715;28;20060;-76
2022/07/14 22:48:02;;;;;;;0.55;0.47;;;;;;;;;;12629425;28;20032;-76
2022/07/14 22:54:04;;;;;;;0.52;0.50;;;;;;;;;;12647286;28;20032;-77
2022/07/14 23:00:09;;;;;;;1.60;0.80;;;;;;;;;;12646701;28;20044;-77
2022/07/14 23:06:12;;;;;;;0.57;0.50;;;;;;;;;;12646688;28;20024;-77
2022/07/14 23:12:26;;;;;;;1.13;0.68;;;;;;;;;;12645923;28;20032;-80
2022/07/14 23:18:27;;;;;;;0.90;0.50;;;;;;;;;;12628615;28;20399;-78
2022/07/14 23:24:29;;;;;;;0.47;0.47;;;;;;;;;;12627989;28;20044;-77
2022/07/14 23:30:30;;;;;;;0.70;0.70;;;;;;;;;;12645703;28;20032;-76
2022/07/14 23:36:32;;;;;;;0.80;0.80;;;;;;;;;;12646353;28;20395;-77
2022/07/14 23:42:34;;;;;;;1.67;0.68;;;;;;;;;;12626972;28;20504;-76
2022/07/14 23:48:36;;;;;;;0.88;0.70;;;;;;;;;;12627876;28;20517;-76
2022/07/14 23:54:38;;;;;;;0.85;0.40;;;;;;;;;;12645398;28;20041;-76
